Time;durP1;ratioP1;P1;durP2;ratioP2;P2;SDS_P1;SDS_P2;PMS_P1;PMS_P2;Temp;Humidity;BMP_temperature;BMP_pressure;BME280_temperature;BME280_humidity;BME280_pressure;Samples;Min_cycle;Max_cycle;Signal;HPM_P1;HPM_P2
2023/05/02 00:00:44;;;;;;;129.25;12.88;;;;;;;;;;4986294;28;20347;-57
2023/05/02 00:03:10;;;;;;;100.75;12.38;;;;;;;;;;4985304;28;20026;-55
2023/05/02 00:05:35;;;;;;;101.07;12.68;;;;;;;;;;4985642;28;20756;-57
2023/05/02 00:08:01;;;;;;;110.28;12.23;;;;;;;;;;4988054;28;20029;-56
2023/05/02 00:10:26;;;;;;;93.43;12.30;;;;;;;;;;4984812;28;20030;-58
2023/05/02 00:12:51;;;;;;;81.88;10.27;;;;;;;;;;4987816;28;20094;-57
2023/05/02 00:15:17;;;;;;;106.05;12.15;;;;;;;;;;4984018;28;20037;-55
2023/05/02 00:17:42;;;;;;;110.95;12.15;;;;;;;;;;4984439;28;20038;-57
2023/05/02 00:20:10;;;;;;;110.63;13.30;;;;;;;;;;4985031;28;20018;-55
2023/05/02 00:22:36;;;;;;;126.38;13.55;;;;;;;;;;4986279;28;20029;-56
2023/05/02 00:25:01;;;;;;;95.07;11.35;;;;;;;;;;4986612;28;20022;-57
2023/05/02 00:27:26;;;;;;;103.43;10.82;;;;;;;;;;4986922;28;20412;-57
2023/05/02 00:29:55;;;;;;;124.15;11.98;;;;;;;;;;4987005;28;20072;-58
2023/05/02 00:32:20;;;;;;;107.85;11.43;;;;;;;;;;4986707;28;20049;-57
2023/05/02 00:34:45;;;;;;;99.07;11.07;;;;;;;;;;4984193;28;20026;-57
2023/05/02 00:37:11;;;;;;;109.78;11.48;;;;;;;;;;4984854;28;20293;-57
2023/05/02 00:39:37;;;;;;;93.70;11.05;;;;;;;;;;4985701;28;20535;-55
2023/05/02 00:42:02;;;;;;;100.50;10.88;;;;;;;;;;4982993;28;20095;-57
2023/05/02 00:44:27;;;;;;;82.85;10.25;;;;;;;;;;4985452;28;20034;-56
2023/05/02 00:46:56;;;;;;;112.40;11.63;;;;;;;;;;4985614;28;20046;-57
2023/05/02 00:49:21;;;;;;;108.90;12.20;;;;;;;;;;4984444;28;20032;-56
2023/05/02 00:51:46;;;;;;;109.85;11.15;;;;;;;;;;4984832;28;20041;-55
2023/05/02 00:54:12;;;;;;;131.27;12.52;;;;;;;;;;4985356;28;20136;-57
2023/05/02 00:56:37;;;;;;;93.57;11.07;;;;;;;;;;4984350;28;20034;-60
2023/05/02 00:59:07;;;;;;;97.07;11.20;;;;;;;;;;4984697;28;20077;-57
2023/05/02 01:01:33;;;;;;;116.07;12.55;;;;;;;;;;4981620;28;20034;-57
2023/05/02 01:03:58;;;;;;;109.70;11.63;;;;;;;;;;4985411;28;20105;-56
2023/05/02 01:06:42;;;;;;;129.57;12.27;;;;;;;;;;4983802;28;20042;-58
2023/05/02 01:09:26;;;;;;;103.45;11.90;;;;;;;;;;4985802;28;20368;-57
2023/05/02 01:12:10;;;;;;;95.32;11.60;;;;;;;;;;4982827;28;20821;-57
2023/05/02 01:14:40;;;;;;;131.82;12.95;;;;;;;;;;4984400;28;20033;-55
2023/05/02 01:17:07;;;;;;;88.05;10.65;;;;;;;;;;4985849;28;20034;-57
2023/05/02 01:19:35;;;;;;;119.93;12.18;;;;;;;;;;4984616;28;20026;-58
2023/05/02 01:22:02;;;;;;;94.15;10.68;;;;;;;;;;4985717;28;20064;-56
2023/05/02 01:24:51;;;;;;;98.75;10.68;;;;;;;;;;4985876;28;20035;-57
2023/05/02 01:27:35;;;;;;;101.63;9.93;;;;;;;;;;4984437;28;20039;-56
2023/05/02 01:30:02;;;;;;;111.38;10.77;;;;;;;;;;4983428;28;20121;-55
2023/05/02 01:32:29;;;;;;;94.32;10.77;;;;;;;;;;4983284;28;20034;-59
2023/05/02 01:34:56;;;;;;;118.97;11.25;;;;;;;;;;4983479;28;20041;-56
2023/05/02 01:37:21;;;;;;;102.43;10.55;;;;;;;;;;4983076;28;20807;-57
2023/05/02 01:39:48;;;;;;;114.60;10.77;;;;;;;;;;4983313;28;20608;-57
2023/05/02 01:42:14;;;;;;;121.93;11.15;;;;;;;;;;4983416;28;20030;-55
2023/05/02 01:44:40;;;;;;;103.97;11.02;;;;;;;;;;4983443;28;20056;-57
2023/05/02 01:47:06;;;;;;;102.65;10.80;;;;;;;;;;4983708;28;20043;-55
2023/05/02 01:49:32;;;;;;;107.35;11.32;;;;;;;;;;4984530;28;20127;-56
2023/05/02 01:52:02;;;;;;;96.30;11.55;;;;;;;;;;4985042;28;20034;-56
2023/05/02 01:54:27;;;;;;;124.90;11.55;;;;;;;;;;4984946;28;20015;-56
2023/05/02 01:56:54;;;;;;;93.25;10.68;;;;;;;;;;4983622;28;20042;-56
2023/05/02 01:59:21;;;;;;;106.38;10.20;;;;;;;;;;4984809;28;20941;-55
2023/05/02 02:01:47;;;;;;;101.90;11.65;;;;;;;;;;4983007;28;20038;-57
2023/05/02 02:04:14;;;;;;;98.05;10.13;;;;;;;;;;4985263;28;20010;-57
2023/05/02 02:06:42;;;;;;;130.27;12.65;;;;;;;;;;4983381;28;20065;-56
2023/05/02 02:09:07;;;;;;;108.38;10.90;;;;;;;;;;4983775;28;20545;-57
2023/05/02 02:11:38;;;;;;;123.55;11.63;;;;;;;;;;4982442;28;20042;-56
2023/05/02 02:14:05;;;;;;;99.38;11.50;;;;;;;;;;4984352;28;20844;-56
2023/05/02 02:16:33;;;;;;;88.10;10.75;;;;;;;;;;4985304;28;20042;-55
2023/05/02 02:19:03;;;;;;;105.20;11.68;;;;;;;;;;4983957;28;20058;-55
2023/05/02 02:21:30;;;;;;;88.80;11.98;;;;;;;;;;4983791;28;20592;-57
2023/05/02 02:23:56;;;;;;;175.38;15.43;;;;;;;;;;4983476;28;20510;-55
2023/05/02 02:26:22;;;;;;;101.18;11.32;;;;;;;;;;4982536;28;20065;-57
2023/05/02 02:28:47;;;;;;;100.38;11.98;;;;;;;;;;4984666;28;20056;-55
2023/05/02 02:31:12;;;;;;;132.68;13.07;;;;;;;;;;4982725;28;20114;-57
2023/05/02 02:33:38;;;;;;;101.43;11.40;;;;;;;;;;4983178;28;20147;-57
2023/05/02 02:36:07;;;;;;;92.05;10.95;;;;;;;;;;4982866;28;20037;-55
2023/05/02 02:38:41;;;;;;;97.45;10.82;;;;;;;;;;4983904;28;20033;-57
2023/05/02 02:41:15;;;;;;;105.68;11.05;;;;;;;;;;4981852;28;20418;-55
2023/05/02 02:43:43;;;;;;;144.98;12.93;;;;;;;;;;4981137;28;20363;-57
2023/05/02 02:46:24;;;;;;;113.55;11.05;;;;;;;;;;4983790;28;20125;-55
2023/05/02 02:48:56;;;;;;;100.07;11.15;;;;;;;;;;4983700;28;20025;-56
2023/05/02 02:51:21;;;;;;;;;;;;;;;;;;4971885;28;20125;-58
2023/05/02 02:53:55;;;;;;;162.93;13.37;;;;;;;;;;4982853;28;20035;-56
2023/05/02 02:56:27;;;;;;;105.95;11.10;;;;;;;;;;4984174;28;20281;-57
2023/05/02 02:59:25;;;;;;;114.45;11.52;;;;;;;;;;4983253;28;20079;-56
2023/05/02 03:02:02;;;;;;;111.00;10.73;;;;;;;;;;5003833;28;20821;-57
2023/05/02 03:04:28;;;;;;;101.68;11.98;;;;;;;;;;4983117;28;20052;-56
2023/05/02 03:06:54;;;;;;;121.57;11.82;;;;;;;;;;4982619;28;20091;-57
2023/05/02 03:09:19;;;;;;;96.43;12.82;;;;;;;;;;4982449;28;20030;-57
2023/05/02 03:11:47;;;;;;;109.30;11.50;;;;;;;;;;4983907;28;20053;-56
2023/05/02 03:14:12;;;;;;;128.15;12.13;;;;;;;;;;4981479;28;20109;-56
2023/05/02 03:16:38;;;;;;;107.55;11.10;;;;;;;;;;4982132;28;20041;-57
2023/05/02 03:19:04;;;;;;;113.45;11.65;;;;;;;;;;4983509;28;20030;-56
2023/05/02 03:21:33;;;;;;;95.65;11.15;;;;;;;;;;4982466;28;20642;-57
2023/05/02 03:24:02;;;;;;;111.55;11.65;;;;;;;;;;4982969;28;20015;-58
2023/05/02 03:26:28;;;;;;;111.18;10.88;;;;;;;;;;4982681;28;20807;-56
2023/05/02 03:28:53;;;;;;;110.53;11.13;;;;;;;;;;4982404;28;20026;-56
2023/05/02 03:31:19;;;;;;;101.00;11.50;;;;;;;;;;4981694;28;20673;-56
2023/05/02 03:33:45;;;;;;;159.30;13.95;;;;;;;;;;4982451;28;20022;-56
2023/05/02 03:36:10;;;;;;;101.70;11.65;;;;;;;;;;4983847;28;20046;-57
2023/05/02 03:38:35;;;;;;;117.63;11.83;;;;;;;;;;4983053;28;20019;-55
2023/05/02 03:41:01;;;;;;;97.45;12.45;;;;;;;;;;4983075;28;20268;-55
2023/05/02 03:43:27;;;;;;;92.63;11.43;;;;;;;;;;4984926;28;20061;-57
2023/05/02 03:45:52;;;;;;;102.33;11.37;;;;;;;;;;4981324;28;20558;-57
2023/05/02 03:48:17;;;;;;;112.47;12.23;;;;;;;;;;4984747;28;20840;-58
2023/05/02 03:50:42;;;;;;;163.05;12.80;;;;;;;;;;4981674;28;20979;-58
2023/05/02 03:53:08;;;;;;;106.80;11.73;;;;;;;;;;4984591;28;20036;-57
2023/05/02 03:55:38;;;;;;;102.65;12.32;;;;;;;;;;4982015;28;20030;-56
2023/05/02 03:58:03;;;;;;;113.43;12.13;;;;;;;;;;4983975;28;20030;-56
2023/05/02 04:00:30;;;;;;;92.80;11.20;;;;;;;;;;4983550;28;20095;-56
2023/05/02 04:02:55;;;;;;;99.68;13.63;;;;;;;;;;4982516;28;20265;-57
2023/05/02 04:05:20;;;;;;;91.50;12.88;;;;;;;;;;4981033;28;20100;-57
2023/05/02 04:07:46;;;;;;;115.57;14.27;;;;;;;;;;4983997;28;20099;-57
2023/05/02 04:10:15;;;;;;;115.57;13.05;;;;;;;;;;4981366;28;20289;-57
2023/05/02 04:12:40;;;;;;;110.32;13.68;;;;;;;;;;4982485;28;20026;-58
2023/05/02 04:15:06;;;;;;;108.32;13.27;;;;;;;;;;4982299;28;20700;-57
2023/05/02 04:17:31;;;;;;;115.68;13.93;;;;;;;;;;4981068;28;20042;-56
2023/05/02 04:19:56;;;;;;;107.73;13.37;;;;;;;;;;4983755;28;20101;-55
2023/05/02 04:22:21;;;;;;;142.13;14.30;;;;;;;;;;4979645;28;20310;-57
2023/05/02 04:24:47;;;;;;;110.90;13.07;;;;;;;;;;4980983;28;20656;-55
2023/05/02 04:27:12;;;;;;;114.57;11.13;;;;;;;;;;4982236;28;20122;-58
2023/05/02 04:29:37;;;;;;;115.73;10.70;;;;;;;;;;4982050;28;20961;-58
2023/05/02 04:32:02;;;;;;;105.97;13.30;;;;;;;;;;4978821;28;20790;-56
2023/05/02 04:34:28;;;;;;;134.02;12.57;;;;;;;;;;4985703;28;20702;-59
2023/05/02 04:36:53;;;;;;;122.60;12.45;;;;;;;;;;4983388;28;20042;-57
2023/05/02 04:39:18;;;;;;;113.13;12.57;;;;;;;;;;4984121;28;20437;-56
2023/05/02 04:41:43;;;;;;;112.30;13.80;;;;;;;;;;4984359;28;20234;-56
2023/05/02 04:44:09;;;;;;;100.17;14.27;;;;;;;;;;4982697;28;20524;-56
2023/05/02 04:46:34;;;;;;;107.80;12.18;;;;;;;;;;4985688;28;20330;-57
2023/05/02 04:49:00;;;;;;;127.95;13.75;;;;;;;;;;4983682;28;20060;-58
2023/05/02 04:51:26;;;;;;;110.47;13.63;;;;;;;;;;4984277;28;20122;-57
2023/05/02 04:53:52;;;;;;;168.35;14.98;;;;;;;;;;4986391;28;20460;-58
2023/05/02 04:56:17;;;;;;;132.00;14.47;;;;;;;;;;4986997;28;20046;-57
2023/05/02 04:58:42;;;;;;;106.88;12.40;;;;;;;;;;4984796;28;20732;-57
2023/05/02 05:01:07;;;;;;;94.53;12.23;;;;;;;;;;4985083;28;20039;-57
2023/05/02 05:03:33;;;;;;;113.10;13.07;;;;;;;;;;4985882;28;20316;-58
2023/05/02 05:05:58;;;;;;;88.80;11.45;;;;;;;;;;4984368;28;20038;-58
2023/05/02 05:08:23;;;;;;;100.53;11.07;;;;;;;;;;4985686;28;20385;-57
2023/05/02 05:10:49;;;;;;;118.38;12.90;;;;;;;;;;4983374;28;20381;-58
2023/05/02 05:13:14;;;;;;;110.65;12.48;;;;;;;;;;4985503;28;20166;-58
2023/05/02 05:15:39;;;;;;;132.30;13.70;;;;;;;;;;4974802;28;20130;-56
2023/05/02 05:18:05;;;;;;;92.68;11.85;;;;;;;;;;4983505;28;20239;-56
2023/05/02 05:20:31;;;;;;;87.85;11.48;;;;;;;;;;4983402;28;20145;-58
2023/05/02 05:22:56;;;;;;;104.47;12.75;;;;;;;;;;4984298;28;20068;-58
2023/05/02 05:25:21;;;;;;;97.82;12.30;;;;;;;;;;4981938;28;20026;-57
2023/05/02 05:27:46;;;;;;;114.85;12.95;;;;;;;;;;4984049;28;20495;-58
2023/05/02 05:30:12;;;;;;;100.43;11.50;;;;;;;;;;4983018;28;20022;-58
2023/05/02 05:32:37;;;;;;;105.60;12.60;;;;;;;;;;4983643;28;20258;-57
2023/05/02 05:35:03;;;;;;;111.93;12.30;;;;;;;;;;4982284;28;20030;-58
2023/05/02 05:37:28;;;;;;;110.47;12.52;;;;;;;;;;4984356;28;20292;-57
2023/05/02 05:39:54;;;;;;;80.47;11.70;;;;;;;;;;4983777;28;20046;-58
2023/05/02 05:42:19;;;;;;;119.57;13.20;;;;;;;;;;4984043;28;20501;-55
2023/05/02 05:44:44;;;;;;;99.47;11.60;;;;;;;;;;4983733;28;20014;-58
2023/05/02 05:47:10;;;;;;;122.90;12.77;;;;;;;;;;4984223;28;20306;-58
2023/05/02 05:49:35;;;;;;;92.25;11.90;;;;;;;;;;4983409;28;20064;-56
2023/05/02 05:52:00;;;;;;;99.30;12.07;;;;;;;;;;4982033;28;20046;-58
2023/05/02 05:54:26;;;;;;;111.50;12.13;;;;;;;;;;4983295;28;20034;-57
2023/05/02 05:56:51;;;;;;;92.90;11.90;;;;;;;;;;4984270;28;20410;-56
2023/05/02 05:59:16;;;;;;;116.07;12.57;;;;;;;;;;4966489;28;20368;-57
2023/05/02 06:01:41;;;;;;;108.77;12.70;;;;;;;;;;4982327;28;20563;-57
2023/05/02 06:04:07;;;;;;;104.67;12.67;;;;;;;;;;4984138;28;21187;-59
2023/05/02 06:06:32;;;;;;;92.57;12.27;;;;;;;;;;4982219;28;20650;-58
2023/05/02 06:08:57;;;;;;;96.40;12.07;;;;;;;;;;4985323;28;20032;-56
2023/05/02 06:11:26;;;;;;;90.30;12.77;;;;;;;;;;4982264;28;20030;-56
2023/05/02 06:13:52;;;;;;;186.68;16.05;;;;;;;;;;4981901;28;20465;-56
2023/05/02 06:16:17;;;;;;;95.10;13.35;;;;;;;;;;4983684;28;20507;-56
2023/05/02 06:18:46;;;;;;;100.40;12.40;;;;;;;;;;4982334;28;20023;-57
2023/05/02 06:21:11;;;;;;;110.75;13.63;;;;;;;;;;4981918;28;20558;-57
2023/05/02 06:23:36;;;;;;;111.78;13.98;;;;;;;;;;4983518;28;20030;-56
2023/05/02 06:26:02;;;;;;;122.65;13.68;;;;;;;;;;4981182;28;20026;-59
2023/05/02 06:28:28;;;;;;;97.22;13.35;;;;;;;;;;4983397;28;20430;-57
2023/05/02 06:31:00;;;;;;;106.47;13.30;;;;;;;;;;4982065;28;20606;-56
2023/05/02 06:33:29;;;;;;;98.88;13.32;;;;;;;;;;4982997;28;20026;-58
2023/05/02 06:35:54;;;;;;;87.25;13.02;;;;;;;;;;4981107;28;20104;-58
2023/05/02 06:38:20;;;;;;;117.72;14.70;;;;;;;;;;4983805;28;20030;-55
2023/05/02 06:40:45;;;;;;;147.45;16.08;;;;;;;;;;4983024;28;20038;-58
2023/05/02 06:43:11;;;;;;;110.43;13.90;;;;;;;;;;4983973;28;20025;-56
2023/05/02 06:45:36;;;;;;;97.32;13.20;;;;;;;;;;4983664;28;20035;-60
2023/05/02 06:48:01;;;;;;;94.85;14.07;;;;;;;;;;4983143;28;20027;-60
2023/05/02 06:50:27;;;;;;;111.38;15.05;;;;;;;;;;4982428;28;20122;-57
2023/05/02 06:52:52;;;;;;;92.72;13.75;;;;;;;;;;4983135;28;20391;-58
2023/05/02 06:55:18;;;;;;;114.97;15.17;;;;;;;;;;4981335;28;20159;-57
2023/05/02 06:57:43;;;;;;;128.43;15.80;;;;;;;;;;4984393;28;20395;-58
2023/05/02 07:00:09;;;;;;;91.03;15.55;;;;;;;;;;4983018;28;20289;-57
2023/05/02 07:02:34;;;;;;;101.57;14.70;;;;;;;;;;4983516;28;20078;-58
2023/05/02 07:04:59;;;;;;;119.80;16.35;;;;;;;;;;4981795;28;20026;-56
2023/05/02 07:07:25;;;;;;;111.90;16.13;;;;;;;;;;4981582;28;20035;-55
2023/05/02 07:09:51;;;;;;;114.75;15.48;;;;;;;;;;4985225;28;20261;-58
2023/05/02 07:12:16;;;;;;;100.10;14.35;;;;;;;;;;4982566;28;20060;-55
2023/05/02 07:14:41;;;;;;;99.60;14.67;;;;;;;;;;4982749;28;20040;-58
2023/05/02 07:17:07;;;;;;;114.97;15.45;;;;;;;;;;4982323;28;20828;-55
2023/05/02 07:19:32;;;;;;;114.30;15.15;;;;;;;;;;4981554;28;20026;-56
2023/05/02 07:21:57;;;;;;;78.83;14.50;;;;;;;;;;4983806;28;20521;-58
2023/05/02 07:24:22;;;;;;;110.93;14.80;;;;;;;;;;4980917;28;20930;-57
2023/05/02 07:26:48;;;;;;;86.03;13.80;;;;;;;;;;4983789;28;20042;-56
2023/05/02 07:29:13;;;;;;;105.30;14.73;;;;;;;;;;4982802;28;20260;-56
2023/05/02 07:31:38;;;;;;;106.85;14.68;;;;;;;;;;4980727;28;20446;-58
2023/05/02 07:34:03;;;;;;;123.32;14.88;;;;;;;;;;4981948;28;20093;-56
2023/05/02 07:36:29;;;;;;;108.03;14.35;;;;;;;;;;4980420;28;20139;-58
2023/05/02 07:38:54;;;;;;;99.03;14.00;;;;;;;;;;4981975;28;20436;-56
2023/05/02 07:41:19;;;;;;;111.50;14.95;;;;;;;;;;4982746;28;20031;-57
2023/05/02 07:43:45;;;;;;;133.75;15.57;;;;;;;;;;4983638;28;20071;-57
2023/05/02 07:46:10;;;;;;;115.47;14.27;;;;;;;;;;4982210;28;20441;-56
2023/05/02 07:48:36;;;;;;;83.22;13.38;;;;;;;;;;4983374;28;20268;-58
2023/05/02 07:51:04;;;;;;;101.70;13.63;;;;;;;;;;4980015;28;20378;-58
2023/05/02 07:53:30;;;;;;;97.45;13.60;;;;;;;;;;4984268;28;20034;-56
2023/05/02 07:55:55;;;;;;;99.17;14.37;;;;;;;;;;4982087;28;20045;-57
2023/05/02 07:58:20;;;;;;;97.18;13.48;;;;;;;;;;4982816;28;20289;-58
2023/05/02 08:00:45;;;;;;;129.70;14.90;;;;;;;;;;4982331;28;20092;-58
2023/05/02 08:03:11;;;;;;;118.47;14.80;;;;;;;;;;4982878;28;20272;-57
2023/05/02 08:05:36;;;;;;;112.10;14.32;;;;;;;;;;4980678;28;20387;-57
2023/05/02 08:08:01;;;;;;;95.87;12.90;;;;;;;;;;4984545;28;20095;-58
2023/05/02 08:10:27;;;;;;;116.60;12.88;;;;;;;;;;4985361;28;20280;-56
2023/05/02 08:12:52;;;;;;;98.88;13.57;;;;;;;;;;4985225;28;20499;-58
2023/05/02 08:15:18;;;;;;;97.05;13.40;;;;;;;;;;4984005;28;20018;-58
2023/05/02 08:17:43;;;;;;;88.82;13.55;;;;;;;;;;4984494;28;20022;-58
2023/05/02 08:20:08;;;;;;;103.50;13.10;;;;;;;;;;4985393;28;20283;-57
2023/05/02 08:22:34;;;;;;;110.80;13.55;;;;;;;;;;4984178;28;20014;-58
2023/05/02 08:24:59;;;;;;;67.10;12.10;;;;;;;;;;4985564;28;20010;-56
2023/05/02 08:27:24;;;;;;;80.07;12.60;;;;;;;;;;4983438;28;20368;-56
2023/05/02 08:29:49;;;;;;;103.73;13.07;;;;;;;;;;4973060;28;20276;-57
2023/05/02 08:32:15;;;;;;;106.93;13.40;;;;;;;;;;4986180;28;20766;-58
2023/05/02 08:34:40;;;;;;;106.17;14.53;;;;;;;;;;4985166;28;20440;-57
2023/05/02 08:37:09;;;;;;;97.67;13.87;;;;;;;;;;4985303;28;20289;-58
2023/05/02 08:39:34;;;;;;;99.43;13.23;;;;;;;;;;4984928;28;20604;-58
2023/05/02 08:41:59;;;;;;;109.82;15.48;;;;;;;;;;4985971;28;20048;-57
2023/05/02 08:44:25;;;;;;;107.97;15.15;;;;;;;;;;4985009;28;20437;-56
2023/05/02 08:46:51;;;;;;;100.00;14.57;;;;;;;;;;4986568;28;20034;-56
2023/05/02 08:49:16;;;;;;;122.45;14.82;;;;;;;;;;4984744;28;20029;-58
2023/05/02 08:51:43;;;;;;;104.82;14.38;;;;;;;;;;4984663;28;20034;-58
2023/05/02 08:54:09;;;;;;;111.25;15.05;;;;;;;;;;4983252;28;20030;-58
2023/05/02 08:56:35;;;;;;;101.45;14.73;;;;;;;;;;4984909;28;20064;-58
2023/05/02 08:59:00;;;;;;;86.60;14.55;;;;;;;;;;4984133;28;20041;-59
2023/05/02 09:01:29;;;;;;;99.00;14.20;;;;;;;;;;4984655;28;20483;-57
2023/05/02 09:03:56;;;;;;;136.85;15.15;;;;;;;;;;4982557;28;20029;-57
2023/05/02 09:06:21;;;;;;;94.60;12.48;;;;;;;;;;4983830;28;20061;-57
2023/05/02 09:08:48;;;;;;;97.50;11.57;;;;;;;;;;4985478;28;20027;-60
2023/05/02 09:11:13;;;;;;;59.17;9.90;;;;;;;;;;4983246;28;20121;-58
2023/05/02 09:13:43;;;;;;;106.53;12.13;;;;;;;;;;4987269;28;20136;-55
2023/05/02 09:16:09;;;;;;;104.60;10.77;;;;;;;;;;4984687;28;20201;-57
2023/05/02 09:18:36;;;;;;;88.43;11.07;;;;;;;;;;4984370;28;20429;-58
2023/05/02 09:21:11;;;;;;;91.10;10.88;;;;;;;;;;4984075;28;20039;-57
2023/05/02 09:23:36;;;;;;;104.53;11.45;;;;;;;;;;4983378;28;20026;-56
2023/05/02 09:26:09;;;;;;;114.32;11.63;;;;;;;;;;4982889;28;20514;-58
2023/05/02 09:28:44;;;;;;;75.13;11.07;;;;;;;;;;4984687;28;20569;-58
2023/05/02 09:31:10;;;;;;;102.97;11.32;;;;;;;;;;4982882;28;20118;-57
2023/05/02 09:33:36;;;;;;;100.50;11.07;;;;;;;;;;4981820;28;20029;-57
2023/05/02 09:36:01;;;;;;;91.38;10.52;;;;;;;;;;4980671;28;20034;-56
2023/05/02 09:38:26;;;;;;;65.90;9.68;;;;;;;;;;4970615;28;20264;-58
2023/05/02 09:40:55;;;;;;;89.03;10.03;;;;;;;;;;4985052;28;20083;-56
2023/05/02 09:43:20;;;;;;;103.38;10.88;;;;;;;;;;4983647;28;20156;-58
2023/05/02 09:45:55;;;;;;;70.97;7.20;;;;;;;;;;4982431;28;20042;-58
2023/05/02 09:48:20;;;;;;;96.57;8.07;;;;;;;;;;4983914;28;20040;-57
2023/05/02 09:50:46;;;;;;;89.50;10.03;;;;;;;;;;4981792;28;20034;-59
2023/05/02 09:53:11;;;;;;;75.93;9.37;;;;;;;;;;4984975;28;21272;-57
2023/05/02 09:55:36;;;;;;;89.30;9.77;;;;;;;;;;4983092;28;20513;-57
2023/05/02 09:58:02;;;;;;;71.50;9.63;;;;;;;;;;4984152;28;20527;-57
2023/05/02 10:00:43;;;;;;;83.28;9.38;;;;;;;;;;4982739;28;20037;-59
2023/05/02 10:03:09;;;;;;;91.40;10.27;;;;;;;;;;4984563;28;20130;-57
2023/05/02 10:05:38;;;;;;;78.07;9.82;;;;;;;;;;4983373;28;20113;-57
2023/05/02 10:08:07;;;;;;;66.95;9.93;;;;;;;;;;4983535;28;20526;-59
2023/05/02 10:10:34;;;;;;;78.55;10.10;;;;;;;;;;4981145;28;20038;-57
2023/05/02 10:13:00;;;;;;;82.97;10.43;;;;;;;;;;4984538;28;20125;-58
2023/05/02 10:15:27;;;;;;;68.97;9.40;;;;;;;;;;4982146;28;20038;-59
2023/05/02 10:17:53;;;;;;;96.65;11.38;;;;;;;;;;4982842;28;20054;-58
2023/05/02 10:20:21;;;;;;;88.07;10.45;;;;;;;;;;4984127;28;20049;-59
2023/05/02 10:22:48;;;;;;;89.60;10.65;;;;;;;;;;4983688;28;20022;-57
2023/05/02 10:25:13;;;;;;;105.15;10.77;;;;;;;;;;4983682;28;20101;-58
2023/05/02 10:27:39;;;;;;;85.93;10.45;;;;;;;;;;4984286;28;20425;-58
2023/05/02 10:30:05;;;;;;;81.93;10.27;;;;;;;;;;4982989;28;20509;-59
2023/05/02 10:32:31;;;;;;;84.40;9.98;;;;;;;;;;4981355;28;20030;-57
2023/05/02 10:35:01;;;;;;;223.90;16.33;;;;;;;;;;4979144;28;20066;-58
2023/05/02 10:37:27;;;;;;;109.82;10.90;;;;;;;;;;4982637;28;20543;-59
2023/05/02 10:39:53;;;;;;;79.43;9.77;;;;;;;;;;4982825;28;20023;-58
2023/05/02 10:42:19;;;;;;;82.57;10.55;;;;;;;;;;4982468;28;20060;-59
2023/05/02 10:44:44;;;;;;;103.60;10.57;;;;;;;;;;4982262;28;20487;-59
2023/05/02 10:47:20;;;;;;;70.88;8.88;;;;;;;;;;4982718;28;20049;-59
2023/05/02 10:49:53;;;;;;;98.43;10.70;;;;;;;;;;5013111;28;20195;-57
2023/05/02 10:52:45;;;;;;;73.68;9.35;;;;;;;;;;4980626;28;20119;-58
2023/05/02 10:55:18;;;;;;;84.53;9.82;;;;;;;;;;4981295;28;20034;-58
2023/05/02 10:57:58;;;;;;;66.00;8.63;;;;;;;;;;4982355;28;20022;-58
2023/05/02 11:00:24;;;;;;;85.13;9.48;;;;;;;;;;4982551;28;20254;-57
2023/05/02 11:02:50;;;;;;;81.65;9.55;;;;;;;;;;4981075;28;20071;-58
2023/05/02 11:05:16;;;;;;;73.28;8.85;;;;;;;;;;4981750;28;20030;-58
2023/05/02 11:07:41;;;;;;;78.45;8.65;;;;;;;;;;4975294;28;20063;-57
2023/05/02 11:10:15;;;;;;;80.55;9.40;;;;;;;;;;4982449;28;20022;-57
2023/05/02 11:12:45;;;;;;;80.40;9.18;;;;;;;;;;4980989;28;20102;-57
2023/05/02 11:15:10;;;;;;;69.20;8.10;;;;;;;;;;4981737;28;20033;-58
2023/05/02 11:18:08;;;;;;;68.70;8.10;;;;;;;;;;4983979;28;20552;-58
2023/05/02 11:20:33;;;;;;;91.05;8.95;;;;;;;;;;4977106;28;20451;-57
2023/05/02 11:23:20;;;;;;;87.88;8.73;;;;;;;;;;4984667;28;20449;-57
2023/05/02 11:25:49;;;;;;;71.13;8.50;;;;;;;;;;4981735;28;20410;-58
2023/05/02 11:28:33;;;;;;;91.30;8.48;;;;;;;;;;4984460;28;20062;-59
2023/05/02 11:30:59;;;;;;;90.68;9.05;;;;;;;;;;4983495;28;20065;-57
2023/05/02 11:33:24;;;;;;;89.07;8.80;;;;;;;;;;4982112;28;20423;-58
2023/05/02 11:35:50;;;;;;;82.57;8.20;;;;;;;;;;4981270;28;20103;-58
2023/05/02 11:38:15;;;;;;;76.35;8.07;;;;;;;;;;4984247;28;20086;-57
2023/05/02 11:40:48;;;;;;;106.40;9.98;;;;;;;;;;4982196;28;20030;-57
2023/05/02 11:43:14;;;;;;;80.60;8.50;;;;;;;;;;4984863;28;20026;-58
2023/05/02 11:45:41;;;;;;;75.60;7.75;;;;;;;;;;4985256;28;20038;-59
2023/05/02 11:48:07;;;;;;;59.30;6.80;;;;;;;;;;4986908;28;20062;-57
2023/05/02 11:50:32;;;;;;;74.93;6.45;;;;;;;;;;4984948;28;20124;-59
2023/05/02 11:52:58;;;;;;;79.80;7.35;;;;;;;;;;4985388;28;20041;-57
2023/05/02 11:55:23;;;;;;;86.45;7.82;;;;;;;;;;4983939;28;20030;-59
2023/05/02 11:57:48;;;;;;;78.50;7.53;;;;;;;;;;4986163;28;20037;-59
2023/05/02 12:00:14;;;;;;;92.43;8.07;;;;;;;;;;4983945;28;20488;-58
2023/05/02 12:02:43;;;;;;;63.10;6.22;;;;;;;;;;4985537;28;20242;-57
2023/05/02 12:05:12;;;;;;;76.20;7.50;;;;;;;;;;4985434;28;20081;-60
2023/05/02 12:07:37;;;;;;;74.70;7.13;;;;;;;;;;4986916;28;20640;-58
2023/05/02 12:10:02;;;;;;;72.03;7.10;;;;;;;;;;4986009;28;20030;-59
2023/05/02 12:12:27;;;;;;;79.05;7.18;;;;;;;;;;4983228;28;20051;-59
2023/05/02 12:14:53;;;;;;;80.43;6.90;;;;;;;;;;4983942;28;20018;-59
2023/05/02 12:17:18;;;;;;;77.10;7.15;;;;;;;;;;4986287;28;20277;-58
2023/05/02 12:19:43;;;;;;;80.28;7.57;;;;;;;;;;4984965;28;20079;-58
2023/05/02 12:22:09;;;;;;;66.65;6.63;;;;;;;;;;4983506;28;20030;-59
2023/05/02 12:24:35;;;;;;;81.18;7.22;;;;;;;;;;4984594;28;20027;-59
2023/05/02 12:27:13;;;;;;;76.07;6.88;;;;;;;;;;4986587;28;20037;-59
2023/05/02 12:29:39;;;;;;;69.93;6.75;;;;;;;;;;4986261;28;20049;-57
2023/05/02 12:32:04;;;;;;;67.43;7.93;;;;;;;;;;4983807;28;20034;-59
2023/05/02 12:34:33;;;;;;;69.70;7.57;;;;;;;;;;4984429;28;20021;-58
2023/05/02 12:36:59;;;;;;;79.90;7.63;;;;;;;;;;4985150;28;20077;-58
2023/05/02 12:39:37;;;;;;;71.72;6.47;;;;;;;;;;4985382;28;20488;-59
2023/05/02 12:42:10;;;;;;;88.40;7.95;;;;;;;;;;4983550;28;20066;-58
2023/05/02 12:44:36;;;;;;;76.75;6.90;;;;;;;;;;4984025;28;20025;-59
2023/05/02 12:47:01;;;;;;;76.45;6.70;;;;;;;;;;4984354;28;20321;-59
2023/05/02 12:49:26;;;;;;;92.78;7.35;;;;;;;;;;4983779;28;20139;-57
2023/05/02 12:51:52;;;;;;;72.93;6.53;;;;;;;;;;4985642;28;20369;-59
2023/05/02 12:54:20;;;;;;;94.82;7.13;;;;;;;;;;4984377;28;20034;-57
2023/05/02 12:56:45;;;;;;;74.75;6.35;;;;;;;;;;4983110;28;20289;-59
2023/05/02 12:59:24;;;;;;;69.70;6.53;;;;;;;;;;4986865;28;20022;-59
2023/05/02 13:01:50;;;;;;;81.03;6.20;;;;;;;;;;5013720;28;20330;-59
2023/05/02 13:04:15;;;;;;;71.72;5.75;;;;;;;;;;4984011;28;20026;-59
2023/05/02 13:06:41;;;;;;;78.82;5.90;;;;;;;;;;4984416;28;20059;-59
2023/05/02 13:09:06;;;;;;;78.75;5.63;;;;;;;;;;4984713;28;20387;-57
2023/05/02 13:11:31;;;;;;;68.25;5.25;;;;;;;;;;4984376;28;20658;-59
2023/05/02 13:13:59;;;;;;;83.88;5.63;;;;;;;;;;4985802;28;20022;-57
2023/05/02 13:16:24;;;;;;;82.78;5.57;;;;;;;;;;4984188;28;20093;-58
2023/05/02 13:18:50;;;;;;;102.13;7.07;;;;;;;;;;4984463;28;20456;-56
2023/05/02 13:21:15;;;;;;;78.90;6.05;;;;;;;;;;4984163;28;20437;-59
2023/05/02 13:23:42;;;;;;;122.43;8.32;;;;;;;;;;4984866;28;20027;-58
2023/05/02 13:26:08;;;;;;;90.50;6.80;;;;;;;;;;4982983;28;20039;-59
2023/05/02 13:28:34;;;;;;;72.72;6.82;;;;;;;;;;4985194;28;20025;-58
2023/05/02 13:30:59;;;;;;;78.15;6.35;;;;;;;;;;4983623;28;20081;-59
2023/05/02 13:33:25;;;;;;;100.57;8.15;;;;;;;;;;4983160;28;20411;-57
2023/05/02 13:35:50;;;;;;;85.50;7.13;;;;;;;;;;4981867;28;20115;-58
2023/05/02 13:38:15;;;;;;;84.37;7.20;;;;;;;;;;4982087;28;20380;-57
2023/05/02 13:40:40;;;;;;;97.90;7.37;;;;;;;;;;4969382;28;20354;-61
2023/05/02 13:43:06;;;;;;;72.53;5.93;;;;;;;;;;4982966;28;20299;-57
2023/05/02 13:45:31;;;;;;;103.43;7.50;;;;;;;;;;4983043;28;20258;-56
2023/05/02 13:47:57;;;;;;;79.93;6.25;;;;;;;;;;4984170;28;20114;-59
2023/05/02 13:50:22;;;;;;;86.43;6.73;;;;;;;;;;4983295;28;20525;-60
2023/05/02 13:52:47;;;;;;;84.80;7.07;;;;;;;;;;4982159;28;20269;-60
2023/05/02 13:55:13;;;;;;;81.45;6.78;;;;;;;;;;4983846;28;20120;-59
2023/05/02 13:57:38;;;;;;;83.20;6.50;;;;;;;;;;4985401;28;20069;-58
2023/05/02 14:00:03;;;;;;;86.45;6.53;;;;;;;;;;4983456;28;20336;-58
2023/05/02 14:02:29;;;;;;;91.32;6.97;;;;;;;;;;4983834;28;20568;-58
2023/05/02 14:04:54;;;;;;;104.60;7.77;;;;;;;;;;4981759;28;20286;-58
2023/05/02 14:07:19;;;;;;;100.17;7.73;;;;;;;;;;4984111;28;20654;-59
2023/05/02 14:09:44;;;;;;;84.60;6.97;;;;;;;;;;4985156;28;20260;-57
2023/05/02 14:12:10;;;;;;;102.65;7.40;;;;;;;;;;4983666;28;20267;-60